sensor_id;sensor_type;location;lat;lon;timestamp;P1;durP1;ratioP1;P2;durP2;ratioP2
25758;SDS011;13604;52.496;13.456;2023-02-01T00:01:11;33.50;;;4.13;;
25758;SDS011;13604;52.496;13.456;2023-02-01T00:03:36;35.13;;;4.75;;
25758;SDS011;13604;52.496;13.456;2023-02-01T00:06:02;34.20;;;5.28;;
25758;SDS011;13604;52.496;13.456;2023-02-01T00:08:28;30.38;;;5.07;;
25758;SDS011;13604;52.496;13.456;2023-02-01T00:11:07;32.25;;;5.47;;
25758;SDS011;13604;52.496;13.456;2023-02-01T00:13:35;40.47;;;5.82;;
25758;SDS011;13604;52.496;13.456;2023-02-01T00:16:06;26.23;;;4.75;;
25758;SDS011;13604;52.496;13.456;2023-02-01T00:18:33;30.42;;;5.50;;
25758;SDS011;13604;52.496;13.456;2023-02-01T00:20:59;28.02;;;4.32;;
25758;SDS011;13604;52.496;13.456;2023-02-01T00:23:24;29.90;;;4.57;;
25758;SDS011;13604;52.496;13.456;2023-02-01T00:25:50;25.80;;;4.63;;
25758;SDS011;13604;52.496;13.456;2023-02-01T00:28:15;33.92;;;5.57;;
25758;SDS011;13604;52.496;13.456;2023-02-01T00:30:41;32.00;;;4.70;;
25758;SDS011;13604;52.496;13.456;2023-02-01T00:33:06;31.42;;;4.88;;
25758;SDS011;13604;52.496;13.456;2023-02-01T00:35:33;22.25;;;4.18;;
25758;SDS011;13604;52.496;13.456;2023-02-01T00:37:59;17.50;;;4.00;;
25758;SDS011;13604;52.496;13.456;2023-02-01T00:40:25;30.08;;;4.25;;
25758;SDS011;13604;52.496;13.456;2023-02-01T00:42:50;30.13;;;5.43;;
25758;SDS011;13604;52.496;13.456;2023-02-01T00:45:16;28.70;;;4.22;;
25758;SDS011;13604;52.496;13.456;2023-02-01T00:47:42;26.35;;;4.32;;
25758;SDS011;13604;52.496;13.456;2023-02-01T00:50:07;34.83;;;4.53;;
25758;SDS011;13604;52.496;13.456;2023-02-01T00:52:33;30.23;;;4.32;;
25758;SDS011;13604;52.496;13.456;2023-02-01T00:54:58;25.17;;;4.03;;
25758;SDS011;13604;52.496;13.456;2023-02-01T00:57:24;27.73;;;4.35;;
25758;SDS011;13604;52.496;13.456;2023-02-01T00:59:49;30.40;;;4.57;;
25758;SDS011;13604;52.496;13.456;2023-02-01T01:02:14;24.33;;;4.20;;
25758;SDS011;13604;52.496;13.456;2023-02-01T01:04:40;32.08;;;3.55;;
25758;SDS011;13604;52.496;13.456;2023-02-01T01:07:05;22.10;;;3.42;;
25758;SDS011;13604;52.496;13.456;2023-02-01T01:09:31;23.60;;;3.47;;
25758;SDS011;13604;52.496;13.456;2023-02-01T01:11:56;27.23;;;3.65;;
25758;SDS011;13604;52.496;13.456;2023-02-01T01:14:21;13.70;;;3.25;;
25758;SDS011;13604;52.496;13.456;2023-02-01T01:16:46;22.40;;;3.42;;
25758;SDS011;13604;52.496;13.456;2023-02-01T01:19:12;26.13;;;3.40;;
25758;SDS011;13604;52.496;13.456;2023-02-01T01:21:37;27.58;;;4.28;;
25758;SDS011;13604;52.496;13.456;2023-02-01T01:24:03;21.80;;;3.80;;
25758;SDS011;13604;52.496;13.456;2023-02-01T01:26:29;25.58;;;4.63;;
25758;SDS011;13604;52.496;13.456;2023-02-01T01:28:56;20.90;;;3.40;;
25758;SDS011;13604;52.496;13.456;2023-02-01T01:31:23;21.02;;;3.85;;
25758;SDS011;13604;52.496;13.456;2023-02-01T01:33:49;16.52;;;3.65;;
25758;SDS011;13604;52.496;13.456;2023-02-01T01:36:16;17.42;;;3.45;;
25758;SDS011;13604;52.496;13.456;2023-02-01T01:38:42;20.85;;;2.92;;
25758;SDS011;13604;52.496;13.456;2023-02-01T01:41:08;21.90;;;3.55;;
25758;SDS011;13604;52.496;13.456;2023-02-01T01:46:19;21.35;;;4.65;;
25758;SDS011;13604;52.496;13.456;2023-02-01T01:48:48;24.50;;;3.85;;
25758;SDS011;13604;52.496;13.456;2023-02-01T01:51:19;17.67;;;3.30;;
25758;SDS011;13604;52.496;13.456;2023-02-01T01:53:50;27.02;;;3.88;;
25758;SDS011;13604;52.496;13.456;2023-02-01T01:56:34;30.92;;;4.28;;
25758;SDS011;13604;52.496;13.456;2023-02-01T01:59:00;32.13;;;5.13;;
25758;SDS011;13604;52.496;13.456;2023-02-01T02:01:26;21.23;;;3.67;;
25758;SDS011;13604;52.496;13.456;2023-02-01T02:03:52;21.65;;;4.00;;
25758;SDS011;13604;52.496;13.456;2023-02-01T02:09:00;25.05;;;4.50;;
25758;SDS011;13604;52.496;13.456;2023-02-01T02:11:26;21.13;;;3.33;;
25758;SDS011;13604;52.496;13.456;2023-02-01T02:13:52;34.40;;;4.90;;
25758;SDS011;13604;52.496;13.456;2023-02-01T02:16:24;24.15;;;4.03;;
25758;SDS011;13604;52.496;13.456;2023-02-01T02:22:46;16.65;;;3.60;;
25758;SDS011;13604;52.496;13.456;2023-02-01T02:28:45;20.70;;;3.92;;
25758;SDS011;13604;52.496;13.456;2023-02-01T02:46:03;16.80;;;3.38;;
25758;SDS011;13604;52.496;13.456;2023-02-01T02:49:14;28.33;;;3.97;;
25758;SDS011;13604;52.496;13.456;2023-02-01T02:51:59;26.67;;;4.13;;
25758;SDS011;13604;52.496;13.456;2023-02-01T02:54:46;30.58;;;4.25;;
25758;SDS011;13604;52.496;13.456;2023-02-01T02:57:29;21.73;;;4.22;;
25758;SDS011;13604;52.496;13.456;2023-02-01T03:00:18;24.23;;;4.07;;
25758;SDS011;13604;52.496;13.456;2023-02-01T03:03:05;24.63;;;4.35;;
25758;SDS011;13604;52.496;13.456;2023-02-01T03:05:50;28.52;;;4.15;;
25758;SDS011;13604;52.496;13.456;2023-02-01T03:08:20;38.58;;;4.70;;
25758;SDS011;13604;52.496;13.456;2023-02-01T03:10:48;28.23;;;3.88;;
25758;SDS011;13604;52.496;13.456;2023-02-01T03:13:26;30.13;;;4.47;;
25758;SDS011;13604;52.496;13.456;2023-02-01T03:19:02;19.42;;;4.15;;
25758;SDS011;13604;52.496;13.456;2023-02-01T03:21:51;23.42;;;4.30;;
25758;SDS011;13604;52.496;13.456;2023-02-01T03:24:32;30.75;;;4.78;;
25758;SDS011;13604;52.496;13.456;2023-02-01T03:27:07;24.73;;;3.80;;
25758;SDS011;13604;52.496;13.456;2023-02-01T03:29:48;29.95;;;4.20;;
25758;SDS011;13604;52.496;13.456;2023-02-01T03:32:25;21.88;;;4.50;;
25758;SDS011;13604;52.496;13.456;2023-02-01T03:34:51;23.67;;;3.85;;
25758;SDS011;13604;52.496;13.456;2023-02-01T03:37:36;31.65;;;3.85;;
25758;SDS011;13604;52.496;13.456;2023-02-01T03:40:05;23.07;;;3.73;;
25758;SDS011;13604;52.496;13.456;2023-02-01T03:45:08;28.25;;;5.25;;
25758;SDS011;13604;52.496;13.456;2023-02-01T03:47:40;27.48;;;4.07;;
25758;SDS011;13604;52.496;13.456;2023-02-01T03:50:08;24.70;;;5.13;;
25758;SDS011;13604;52.496;13.456;2023-02-01T03:52:38;23.58;;;4.55;;
25758;SDS011;13604;52.496;13.456;2023-02-01T03:55:07;23.13;;;4.68;;
25758;SDS011;13604;52.496;13.456;2023-02-01T03:57:34;29.33;;;4.57;;
25758;SDS011;13604;52.496;13.456;2023-02-01T04:00:05;29.27;;;4.75;;
25758;SDS011;13604;52.496;13.456;2023-02-01T04:02:33;20.58;;;4.15;;
25758;SDS011;13604;52.496;13.456;2023-02-01T04:04:58;35.92;;;5.15;;
25758;SDS011;13604;52.496;13.456;2023-02-01T04:07:24;26.20;;;5.15;;
25758;SDS011;13604;52.496;13.456;2023-02-01T04:09:49;19.63;;;3.95;;
25758;SDS011;13604;52.496;13.456;2023-02-01T04:12:14;38.38;;;5.75;;
25758;SDS011;13604;52.496;13.456;2023-02-01T04:14:40;30.30;;;4.45;;
25758;SDS011;13604;52.496;13.456;2023-02-01T04:17:05;33.10;;;4.65;;
25758;SDS011;13604;52.496;13.456;2023-02-01T04:19:30;22.70;;;3.50;;
25758;SDS011;13604;52.496;13.456;2023-02-01T04:21:56;25.08;;;6.22;;
25758;SDS011;13604;52.496;13.456;2023-02-01T04:24:21;34.50;;;5.53;;
25758;SDS011;13604;52.496;13.456;2023-02-01T04:26:46;26.38;;;4.75;;
25758;SDS011;13604;52.496;13.456;2023-02-01T04:29:11;29.80;;;4.95;;
25758;SDS011;13604;52.496;13.456;2023-02-01T04:31:37;37.00;;;4.80;;
25758;SDS011;13604;52.496;13.456;2023-02-01T04:34:04;33.67;;;5.13;;
25758;SDS011;13604;52.496;13.456;2023-02-01T04:36:29;27.17;;;3.92;;
25758;SDS011;13604;52.496;13.456;2023-02-01T04:38:54;31.45;;;4.85;;
25758;SDS011;13604;52.496;13.456;2023-02-01T04:41:20;32.25;;;4.88;;
25758;SDS011;13604;52.496;13.456;2023-02-01T04:43:49;28.00;;;4.40;;
25758;SDS011;13604;52.496;13.456;2023-02-01T04:46:16;25.52;;;5.03;;
25758;SDS011;13604;52.496;13.456;2023-02-01T04:48:41;29.50;;;4.97;;
25758;SDS011;13604;52.496;13.456;2023-02-01T04:51:07;27.50;;;4.65;;
25758;SDS011;13604;52.496;13.456;2023-02-01T04:53:32;25.38;;;4.93;;
25758;SDS011;13604;52.496;13.456;2023-02-01T04:55:58;24.73;;;4.10;;
25758;SDS011;13604;52.496;13.456;2023-02-01T04:58:23;30.02;;;4.15;;
25758;SDS011;13604;52.496;13.456;2023-02-01T05:00:48;36.78;;;4.53;;
25758;SDS011;13604;52.496;13.456;2023-02-01T05:03:14;21.58;;;3.92;;
25758;SDS011;13604;52.496;13.456;2023-02-01T05:05:40;24.67;;;5.03;;
25758;SDS011;13604;52.496;13.456;2023-02-01T05:08:06;28.77;;;4.85;;
25758;SDS011;13604;52.496;13.456;2023-02-01T05:10:31;33.00;;;4.53;;
25758;SDS011;13604;52.496;13.456;2023-02-01T05:12:56;27.88;;;4.38;;
25758;SDS011;13604;52.496;13.456;2023-02-01T05:15:40;31.20;;;4.28;;
25758;SDS011;13604;52.496;13.456;2023-02-01T05:18:06;25.83;;;5.13;;
25758;SDS011;13604;52.496;13.456;2023-02-01T05:20:31;34.92;;;4.57;;
25758;SDS011;13604;52.496;13.456;2023-02-01T05:22:56;40.65;;;5.55;;
25758;SDS011;13604;52.496;13.456;2023-02-01T05:25:22;29.10;;;4.53;;
25758;SDS011;13604;52.496;13.456;2023-02-01T05:27:47;25.27;;;4.55;;
25758;SDS011;13604;52.496;13.456;2023-02-01T05:30:12;32.50;;;4.63;;
25758;SDS011;13604;52.496;13.456;2023-02-01T05:32:38;31.65;;;4.85;;
25758;SDS011;13604;52.496;13.456;2023-02-01T05:35:03;28.30;;;4.80;;
25758;SDS011;13604;52.496;13.456;2023-02-01T05:37:29;34.72;;;5.25;;
25758;SDS011;13604;52.496;13.456;2023-02-01T05:39:54;22.77;;;4.75;;
25758;SDS011;13604;52.496;13.456;2023-02-01T05:42:20;26.63;;;4.68;;
25758;SDS011;13604;52.496;13.456;2023-02-01T05:44:45;27.52;;;4.55;;
25758;SDS011;13604;52.496;13.456;2023-02-01T05:47:10;29.77;;;4.55;;
25758;SDS011;13604;52.496;13.456;2023-02-01T05:49:35;36.38;;;4.93;;
25758;SDS011;13604;52.496;13.456;2023-02-01T05:52:01;36.28;;;5.47;;
25758;SDS011;13604;52.496;13.456;2023-02-01T05:54:26;30.92;;;5.47;;
25758;SDS011;13604;52.496;13.456;2023-02-01T05:56:52;20.77;;;4.25;;
25758;SDS011;13604;52.496;13.456;2023-02-01T05:59:17;30.20;;;5.03;;
25758;SDS011;13604;52.496;13.456;2023-02-01T06:01:42;26.92;;;4.43;;
25758;SDS011;13604;52.496;13.456;2023-02-01T06:04:08;25.85;;;5.03;;
25758;SDS011;13604;52.496;13.456;2023-02-01T06:06:33;26.50;;;4.63;;
25758;SDS011;13604;52.496;13.456;2023-02-01T06:08:59;21.92;;;4.80;;
25758;SDS011;13604;52.496;13.456;2023-02-01T06:11:25;28.23;;;4.60;;
25758;SDS011;13604;52.496;13.456;2023-02-01T06:13:50;27.95;;;4.72;;
25758;SDS011;13604;52.496;13.456;2023-02-01T06:16:15;28.42;;;4.65;;
25758;SDS011;13604;52.496;13.456;2023-02-01T06:18:41;29.27;;;4.57;;
25758;SDS011;13604;52.496;13.456;2023-02-01T06:21:07;34.67;;;4.63;;
25758;SDS011;13604;52.496;13.456;2023-02-01T06:23:34;28.83;;;5.63;;
25758;SDS011;13604;52.496;13.456;2023-02-01T06:26:06;28.02;;;4.43;;
25758;SDS011;13604;52.496;13.456;2023-02-01T06:28:35;26.52;;;4.45;;
25758;SDS011;13604;52.496;13.456;2023-02-01T06:31:04;24.38;;;5.28;;
25758;SDS011;13604;52.496;13.456;2023-02-01T06:33:31;32.28;;;4.78;;
25758;SDS011;13604;52.496;13.456;2023-02-01T06:35:58;27.35;;;5.15;;
25758;SDS011;13604;52.496;13.456;2023-02-01T06:38:24;27.50;;;4.40;;
25758;SDS011;13604;52.496;13.456;2023-02-01T06:40:54;27.98;;;4.65;;
25758;SDS011;13604;52.496;13.456;2023-02-01T06:43:21;33.67;;;5.93;;
25758;SDS011;13604;52.496;13.456;2023-02-01T06:45:47;33.20;;;5.88;;
25758;SDS011;13604;52.496;13.456;2023-02-01T06:48:13;33.30;;;5.55;;
25758;SDS011;13604;52.496;13.456;2023-02-01T06:50:38;46.50;;;7.25;;
25758;SDS011;13604;52.496;13.456;2023-02-01T06:53:03;25.48;;;4.93;;
25758;SDS011;13604;52.496;13.456;2023-02-01T06:55:29;23.85;;;4.20;;
25758;SDS011;13604;52.496;13.456;2023-02-01T06:57:54;35.53;;;5.38;;
25758;SDS011;13604;52.496;13.456;2023-02-01T07:00:21;30.42;;;4.85;;
25758;SDS011;13604;52.496;13.456;2023-02-01T07:02:47;26.27;;;5.07;;
25758;SDS011;13604;52.496;13.456;2023-02-01T07:05:12;30.75;;;5.47;;
25758;SDS011;13604;52.496;13.456;2023-02-01T07:07:38;21.77;;;4.00;;
25758;SDS011;13604;52.496;13.456;2023-02-01T07:10:04;25.77;;;4.13;;
25758;SDS011;13604;52.496;13.456;2023-02-01T07:12:29;36.15;;;5.00;;
25758;SDS011;13604;52.496;13.456;2023-02-01T07:14:54;30.63;;;5.05;;
25758;SDS011;13604;52.496;13.456;2023-02-01T07:17:21;22.10;;;4.60;;
25758;SDS011;13604;52.496;13.456;2023-02-01T07:19:46;22.65;;;4.80;;
25758;SDS011;13604;52.496;13.456;2023-02-01T07:22:11;19.42;;;3.90;;
25758;SDS011;13604;52.496;13.456;2023-02-01T07:24:38;29.63;;;4.50;;
25758;SDS011;13604;52.496;13.456;2023-02-01T07:27:03;27.05;;;5.00;;
25758;SDS011;13604;52.496;13.456;2023-02-01T07:29:28;37.72;;;4.80;;
25758;SDS011;13604;52.496;13.456;2023-02-01T07:31:54;33.20;;;5.13;;
25758;SDS011;13604;52.496;13.456;2023-02-01T07:34:19;34.75;;;4.65;;
25758;SDS011;13604;52.496;13.456;2023-02-01T07:36:44;30.58;;;4.85;;
25758;SDS011;13604;52.496;13.456;2023-02-01T07:39:10;28.25;;;4.43;;
25758;SDS011;13604;52.496;13.456;2023-02-01T07:41:35;28.50;;;4.82;;
25758;SDS011;13604;52.496;13.456;2023-02-01T07:44:01;26.63;;;5.50;;
25758;SDS011;13604;52.496;13.456;2023-02-01T07:46:26;24.48;;;5.53;;
25758;SDS011;13604;52.496;13.456;2023-02-01T07:48:51;24.88;;;5.30;;
25758;SDS011;13604;52.496;13.456;2023-02-01T07:51:17;29.15;;;6.68;;
25758;SDS011;13604;52.496;13.456;2023-02-01T07:53:42;36.40;;;5.53;;
25758;SDS011;13604;52.496;13.456;2023-02-01T07:56:13;27.90;;;5.18;;
25758;SDS011;13604;52.496;13.456;2023-02-01T07:58:40;28.25;;;5.38;;
25758;SDS011;13604;52.496;13.456;2023-02-01T08:01:05;17.40;;;3.97;;
25758;SDS011;13604;52.496;13.456;2023-02-01T08:03:49;26.55;;;5.18;;
25758;SDS011;13604;52.496;13.456;2023-02-01T08:06:16;34.85;;;5.82;;
25758;SDS011;13604;52.496;13.456;2023-02-01T08:08:44;18.98;;;5.10;;
25758;SDS011;13604;52.496;13.456;2023-02-01T08:11:10;25.17;;;4.65;;
25758;SDS011;13604;52.496;13.456;2023-02-01T08:13:36;29.10;;;5.22;;
25758;SDS011;13604;52.496;13.456;2023-02-01T08:16:02;27.00;;;5.88;;
25758;SDS011;13604;52.496;13.456;2023-02-01T08:18:29;33.72;;;6.70;;
25758;SDS011;13604;52.496;13.456;2023-02-01T08:20:55;24.88;;;6.03;;
25758;SDS011;13604;52.496;13.456;2023-02-01T08:23:21;26.67;;;6.75;;
25758;SDS011;13604;52.496;13.456;2023-02-01T08:25:47;20.70;;;5.93;;
25758;SDS011;13604;52.496;13.456;2023-02-01T08:28:12;26.35;;;6.38;;
25758;SDS011;13604;52.496;13.456;2023-02-01T08:30:38;23.58;;;6.22;;
25758;SDS011;13604;52.496;13.456;2023-02-01T08:33:04;28.73;;;7.15;;
25758;SDS011;13604;52.496;13.456;2023-02-01T08:35:31;33.85;;;6.97;;
25758;SDS011;13604;52.496;13.456;2023-02-01T08:37:57;21.63;;;6.60;;
25758;SDS011;13604;52.496;13.456;2023-02-01T08:40:22;26.67;;;6.25;;
25758;SDS011;13604;52.496;13.456;2023-02-01T08:42:48;27.73;;;7.28;;
25758;SDS011;13604;52.496;13.456;2023-02-01T08:45:17;34.47;;;8.38;;
25758;SDS011;13604;52.496;13.456;2023-02-01T08:47:43;32.03;;;7.68;;
25758;SDS011;13604;52.496;13.456;2023-02-01T08:50:09;27.50;;;7.95;;
25758;SDS011;13604;52.496;13.456;2023-02-01T08:52:35;33.75;;;10.50;;
25758;SDS011;13604;52.496;13.456;2023-02-01T08:55:00;34.97;;;10.45;;
25758;SDS011;13604;52.496;13.456;2023-02-01T08:57:26;33.15;;;7.53;;
25758;SDS011;13604;52.496;13.456;2023-02-01T08:59:51;31.95;;;9.60;;
25758;SDS011;13604;52.496;13.456;2023-02-01T09:02:17;27.88;;;7.95;;
25758;SDS011;13604;52.496;13.456;2023-02-01T09:04:42;24.25;;;7.15;;
25758;SDS011;13604;52.496;13.456;2023-02-01T09:07:08;28.05;;;7.55;;
25758;SDS011;13604;52.496;13.456;2023-02-01T09:09:34;12.70;;;5.63;;
25758;SDS011;13604;52.496;13.456;2023-02-01T09:11:59;17.13;;;5.97;;
25758;SDS011;13604;52.496;13.456;2023-02-01T09:14:25;14.13;;;5.07;;
25758;SDS011;13604;52.496;13.456;2023-02-01T09:16:50;20.48;;;7.60;;
25758;SDS011;13604;52.496;13.456;2023-02-01T09:19:15;14.85;;;6.68;;
25758;SDS011;13604;52.496;13.456;2023-02-01T09:21:40;18.58;;;6.18;;
25758;SDS011;13604;52.496;13.456;2023-02-01T09:24:06;13.00;;;4.55;;
25758;SDS011;13604;52.496;13.456;2023-02-01T09:26:32;16.70;;;5.07;;
25758;SDS011;13604;52.496;13.456;2023-02-01T09:28:57;16.40;;;5.43;;
25758;SDS011;13604;52.496;13.456;2023-02-01T09:31:23;11.43;;;4.63;;
25758;SDS011;13604;52.496;13.456;2023-02-01T09:33:48;14.38;;;4.45;;
25758;SDS011;13604;52.496;13.456;2023-02-01T09:36:13;16.58;;;5.43;;
25758;SDS011;13604;52.496;13.456;2023-02-01T09:38:39;14.95;;;4.15;;
25758;SDS011;13604;52.496;13.456;2023-02-01T09:47:22;13.40;;;3.83;;
25758;SDS011;13604;52.496;13.456;2023-02-01T09:50:05;6.25;;;3.53;;
25758;SDS011;13604;52.496;13.456;2023-02-01T09:52:58;20.30;;;8.32;;
25758;SDS011;13604;52.496;13.456;2023-02-01T09:55:46;18.50;;;7.28;;
25758;SDS011;13604;52.496;13.456;2023-02-01T09:58:16;8.27;;;2.85;;
25758;SDS011;13604;52.496;13.456;2023-02-01T10:00:57;12.15;;;2.95;;
25758;SDS011;13604;52.496;13.456;2023-02-01T10:03:26;10.93;;;4.20;;
25758;SDS011;13604;52.496;13.456;2023-02-01T10:05:59;9.30;;;2.20;;
25758;SDS011;13604;52.496;13.456;2023-02-01T10:08:57;8.98;;;3.20;;
25758;SDS011;13604;52.496;13.456;2023-02-01T10:11:48;5.00;;;2.20;;
25758;SDS011;13604;52.496;13.456;2023-02-01T10:14:44;7.55;;;2.20;;
25758;SDS011;13604;52.496;13.456;2023-02-01T10:19:55;13.88;;;4.03;;
25758;SDS011;13604;52.496;13.456;2023-02-01T10:25:13;13.32;;;2.60;;
25758;SDS011;13604;52.496;13.456;2023-02-01T10:27:47;5.15;;;2.72;;
25758;SDS011;13604;52.496;13.456;2023-02-01T10:32:42;13.85;;;3.42;;
25758;SDS011;13604;52.496;13.456;2023-02-01T10:35:21;14.95;;;3.50;;
25758;SDS011;13604;52.496;13.456;2023-02-01T10:37:51;11.90;;;2.95;;
25758;SDS011;13604;52.496;13.456;2023-02-01T10:40:24;12.13;;;2.80;;
25758;SDS011;13604;52.496;13.456;2023-02-01T10:42:57;12.23;;;2.88;;
25758;SDS011;13604;52.496;13.456;2023-02-01T10:45:26;12.38;;;2.92;;
25758;SDS011;13604;52.496;13.456;2023-02-01T10:47:54;8.20;;;2.80;;
25758;SDS011;13604;52.496;13.456;2023-02-01T10:50:38;8.88;;;3.10;;
25758;SDS011;13604;52.496;13.456;2023-02-01T10:53:23;13.00;;;3.25;;
25758;SDS011;13604;52.496;13.456;2023-02-01T10:55:54;10.27;;;2.65;;
25758;SDS011;13604;52.496;13.456;2023-02-01T11:01:02;11.68;;;2.78;;
25758;SDS011;13604;52.496;13.456;2023-02-01T11:08:49;6.90;;;2.65;;
25758;SDS011;13604;52.496;13.456;2023-02-01T11:11:16;12.32;;;3.67;;
25758;SDS011;13604;52.496;13.456;2023-02-01T11:13:41;8.02;;;2.78;;
25758;SDS011;13604;52.496;13.456;2023-02-01T11:16:10;8.32;;;2.53;;
25758;SDS011;13604;52.496;13.456;2023-02-01T11:18:38;11.50;;;3.10;;
25758;SDS011;13604;52.496;13.456;2023-02-01T11:21:04;7.97;;;2.72;;
25758;SDS011;13604;52.496;13.456;2023-02-01T11:23:31;12.70;;;3.35;;
25758;SDS011;13604;52.496;13.456;2023-02-01T11:26:07;15.30;;;4.05;;
25758;SDS011;13604;52.496;13.456;2023-02-01T11:28:38;12.90;;;3.22;;
25758;SDS011;13604;52.496;13.456;2023-02-01T11:31:08;19.13;;;3.13;;
25758;SDS011;13604;52.496;13.456;2023-02-01T11:33:36;14.65;;;3.90;;
25758;SDS011;13604;52.496;13.456;2023-02-01T11:36:14;15.13;;;3.53;;
25758;SDS011;13604;52.496;13.456;2023-02-01T11:38:53;9.82;;;3.08;;
25758;SDS011;13604;52.496;13.456;2023-02-01T11:41:33;12.20;;;2.95;;
25758;SDS011;13604;52.496;13.456;2023-02-01T11:43:59;10.10;;;3.50;;
25758;SDS011;13604;52.496;13.456;2023-02-01T11:46:28;11.07;;;3.15;;
25758;SDS011;13604;52.496;13.456;2023-02-01T11:49:13;12.32;;;3.20;;
25758;SDS011;13604;52.496;13.456;2023-02-01T11:51:49;21.10;;;3.63;;
25758;SDS011;13604;52.496;13.456;2023-02-01T11:59:56;12.77;;;2.70;;
25758;SDS011;13604;52.496;13.456;2023-02-01T12:02:39;9.98;;;2.60;;
25758;SDS011;13604;52.496;13.456;2023-02-01T12:05:19;10.45;;;2.30;;
25758;SDS011;13604;52.496;13.456;2023-02-01T12:18:57;10.10;;;2.25;;
25758;SDS011;13604;52.496;13.456;2023-02-01T12:30:30;10.70;;;2.70;;
25758;SDS011;13604;52.496;13.456;2023-02-01T12:33:27;11.35;;;3.05;;
25758;SDS011;13604;52.496;13.456;2023-02-01T12:36:01;14.82;;;4.07;;
25758;SDS011;13604;52.496;13.456;2023-02-01T12:41:32;17.08;;;3.33;;
25758;SDS011;13604;52.496;13.456;2023-02-01T12:44:12;12.40;;;2.47;;
25758;SDS011;13604;52.496;13.456;2023-02-01T12:46:57;15.07;;;2.58;;
25758;SDS011;13604;52.496;13.456;2023-02-01T12:49:30;14.55;;;2.90;;
25758;SDS011;13604;52.496;13.456;2023-02-01T12:52:12;11.77;;;2.50;;
25758;SDS011;13604;52.496;13.456;2023-02-01T12:54:45;12.52;;;2.78;;
25758;SDS011;13604;52.496;13.456;2023-02-01T12:57:26;11.07;;;2.63;;
25758;SDS011;13604;52.496;13.456;2023-02-01T13:02:50;11.30;;;2.53;;
25758;SDS011;13604;52.496;13.456;2023-02-01T13:05:24;12.68;;;2.63;;
25758;SDS011;13604;52.496;13.456;2023-02-01T13:08:04;17.45;;;2.95;;
25758;SDS011;13604;52.496;13.456;2023-02-01T13:10:34;9.63;;;2.53;;
25758;SDS011;13604;52.496;13.456;2023-02-01T13:13:10;15.82;;;2.55;;
25758;SDS011;13604;52.496;13.456;2023-02-01T13:15:40;14.68;;;2.40;;
25758;SDS011;13604;52.496;13.456;2023-02-01T13:18:13;14.27;;;2.42;;
25758;SDS011;13604;52.496;13.456;2023-02-01T13:20:51;9.57;;;2.88;;
25758;SDS011;13604;52.496;13.456;2023-02-01T13:23:26;17.58;;;3.65;;
25758;SDS011;13604;52.496;13.456;2023-02-01T13:25:53;13.77;;;2.55;;
25758;SDS011;13604;52.496;13.456;2023-02-01T13:28:23;12.35;;;4.20;;
25758;SDS011;13604;52.496;13.456;2023-02-01T13:31:17;15.43;;;3.67;;
25758;SDS011;13604;52.496;13.456;2023-02-01T13:33:59;8.13;;;2.35;;
25758;SDS011;13604;52.496;13.456;2023-02-01T13:40:10;18.40;;;2.80;;
25758;SDS011;13604;52.496;13.456;2023-02-01T13:42:48;13.35;;;2.38;;
25758;SDS011;13604;52.496;13.456;2023-02-01T13:45:20;14.25;;;3.10;;
25758;SDS011;13604;52.496;13.456;2023-02-01T13:47:49;9.45;;;2.75;;
25758;SDS011;13604;52.496;13.456;2023-02-01T13:50:27;13.48;;;2.55;;
25758;SDS011;13604;52.496;13.456;2023-02-01T13:53:13;19.70;;;2.80;;
25758;SDS011;13604;52.496;13.456;2023-02-01T13:55:44;11.35;;;2.67;;
25758;SDS011;13604;52.496;13.456;2023-02-01T14:00:42;11.55;;;3.13;;
25758;SDS011;13604;52.496;13.456;2023-02-01T14:03:13;13.15;;;3.60;;
25758;SDS011;13604;52.496;13.456;2023-02-01T14:06:01;12.18;;;2.88;;
25758;SDS011;13604;52.496;13.456;2023-02-01T14:08:39;12.40;;;3.65;;
25758;SDS011;13604;52.496;13.456;2023-02-01T14:11:06;13.68;;;2.80;;
25758;SDS011;13604;52.496;13.456;2023-02-01T14:13:51;14.25;;;3.17;;
25758;SDS011;13604;52.496;13.456;2023-02-01T14:16:17;16.30;;;2.95;;
25758;SDS011;13604;52.496;13.456;2023-02-01T14:21:30;13.27;;;3.67;;
25758;SDS011;13604;52.496;13.456;2023-02-01T14:26:45;12.77;;;3.30;;
25758;SDS011;13604;52.496;13.456;2023-02-01T14:29:21;11.45;;;3.42;;
25758;SDS011;13604;52.496;13.456;2023-02-01T14:31:54;18.25;;;4.60;;
25758;SDS011;13604;52.496;13.456;2023-02-01T14:34:39;10.52;;;2.90;;
25758;SDS011;13604;52.496;13.456;2023-02-01T14:44:48;22.48;;;3.78;;
25758;SDS011;13604;52.496;13.456;2023-02-01T14:47:26;16.77;;;3.17;;
25758;SDS011;13604;52.496;13.456;2023-02-01T14:50:00;17.27;;;3.90;;
25758;SDS011;13604;52.496;13.456;2023-02-01T14:52:35;15.07;;;3.22;;
25758;SDS011;13604;52.496;13.456;2023-02-01T14:55:08;16.98;;;3.80;;
25758;SDS011;13604;52.496;13.456;2023-02-01T14:57:39;19.30;;;3.40;;
25758;SDS011;13604;52.496;13.456;2023-02-01T15:00:18;17.08;;;4.28;;
25758;SDS011;13604;52.496;13.456;2023-02-01T15:02:43;17.95;;;3.88;;
25758;SDS011;13604;52.496;13.456;2023-02-01T15:05:30;22.17;;;3.85;;
25758;SDS011;13604;52.496;13.456;2023-02-01T15:08:24;19.95;;;3.42;;
25758;SDS011;13604;52.496;13.456;2023-02-01T15:10:53;13.50;;;3.15;;
25758;SDS011;13604;52.496;13.456;2023-02-01T15:13:23;17.33;;;2.70;;
25758;SDS011;13604;52.496;13.456;2023-02-01T15:18:33;7.10;;;2.15;;
25758;SDS011;13604;52.496;13.456;2023-02-01T15:21:00;9.18;;;2.08;;
25758;SDS011;13604;52.496;13.456;2023-02-01T15:23:26;5.28;;;2.20;;
25758;SDS011;13604;52.496;13.456;2023-02-01T15:25:52;6.30;;;2.42;;
25758;SDS011;13604;52.496;13.456;2023-02-01T15:28:18;7.57;;;2.25;;
25758;SDS011;13604;52.496;13.456;2023-02-01T15:30:54;10.63;;;3.05;;
25758;SDS011;13604;52.496;13.456;2023-02-01T15:33:24;4.93;;;2.10;;
25758;SDS011;13604;52.496;13.456;2023-02-01T15:35:54;6.85;;;2.30;;
25758;SDS011;13604;52.496;13.456;2023-02-01T15:38:38;7.30;;;2.92;;
25758;SDS011;13604;52.496;13.456;2023-02-01T15:43:42;10.00;;;3.00;;
25758;SDS011;13604;52.496;13.456;2023-02-01T15:46:13;6.82;;;2.33;;
25758;SDS011;13604;52.496;13.456;2023-02-01T15:48:43;5.65;;;2.30;;
25758;SDS011;13604;52.496;13.456;2023-02-01T15:51:16;6.53;;;2.55;;
25758;SDS011;13604;52.496;13.456;2023-02-01T15:53:51;4.80;;;1.83;;
25758;SDS011;13604;52.496;13.456;2023-02-01T15:56:21;7.00;;;2.13;;
25758;SDS011;13604;52.496;13.456;2023-02-01T15:58:56;4.03;;;2.33;;
25758;SDS011;13604;52.496;13.456;2023-02-01T16:01:23;4.28;;;2.13;;
25758;SDS011;13604;52.496;13.456;2023-02-01T16:03:49;4.57;;;2.10;;
25758;SDS011;13604;52.496;13.456;2023-02-01T16:06:27;5.45;;;2.50;;
25758;SDS011;13604;52.496;13.456;2023-02-01T16:08:55;10.00;;;2.60;;
25758;SDS011;13604;52.496;13.456;2023-02-01T16:11:28;2.80;;;2.03;;
25758;SDS011;13604;52.496;13.456;2023-02-01T16:13:56;5.68;;;2.20;;
25758;SDS011;13604;52.496;13.456;2023-02-01T16:16:22;3.85;;;2.53;;
25758;SDS011;13604;52.496;13.456;2023-02-01T16:18:48;6.10;;;2.00;;
25758;SDS011;13604;52.496;13.456;2023-02-01T16:21:13;3.67;;;2.40;;
25758;SDS011;13604;52.496;13.456;2023-02-01T16:23:39;3.92;;;2.70;;
25758;SDS011;13604;52.496;13.456;2023-02-01T16:26:04;7.82;;;2.60;;
25758;SDS011;13604;52.496;13.456;2023-02-01T16:28:30;5.47;;;2.60;;
25758;SDS011;13604;52.496;13.456;2023-02-01T16:30:56;5.80;;;2.70;;